Time;durP1;ratioP1;P1;durP2;ratioP2;P2;SDS_P1;SDS_P2;PMS_P1;PMS_P2;Temp;Humidity;BMP_temperature;BMP_pressure;BME280_temperature;BME280_humidity;BME280_pressure;Samples;Min_cycle;Max_cycle;Signal;HPM_P1;HPM_P2
2024/04/22 00:00:19;;;;;;;2.20;1.25;;;14.70;57.30;;;;;;5490546;26;20105;-70
2024/04/22 00:02:45;;;;;;;4.05;1.25;;;14.70;57.50;;;;;;5458646;26;19994;-70
2024/04/22 00:05:12;;;;;;;2.65;0.82;;;14.70;57.30;;;;;;5490875;26;20005;-70
2024/04/22 00:07:38;;;;;;;1.42;0.75;;;14.70;57.50;;;;;;5490646;26;20582;-74
2024/04/22 00:10:04;;;;;;;6.40;1.35;;;14.70;57.50;;;;;;5458566;26;20001;-70
2024/04/22 00:12:30;;;;;;;2.38;1.00;;;14.70;57.50;;;;;;5490339;26;19994;-70
2024/04/22 00:14:55;;;;;;;1.67;0.82;;;14.60;57.50;;;;;;5491358;26;19998;-70
2024/04/22 00:17:21;;;;;;;2.63;1.10;;;14.60;57.70;;;;;;5490194;26;19994;-71
2024/04/22 00:19:47;;;;;;;1.73;0.90;;;14.60;57.80;;;;;;5490178;26;19994;-70
2024/04/22 00:22:12;;;;;;;1.10;0.85;;;14.60;57.90;;;;;;5489948;26;20374;-71
2024/04/22 00:24:38;;;;;;;1.73;0.80;;;14.60;57.90;;;;;;5490558;26;20002;-71
2024/04/22 00:27:04;;;;;;;2.55;0.80;;;14.60;57.90;;;;;;5490488;26;19997;-70
2024/04/22 00:29:30;;;;;;;1.15;0.70;;;14.60;58.00;;;;;;5490606;26;20002;-70
2024/04/22 00:31:55;;;;;;;5.35;0.90;;;14.50;58.00;;;;;;5490981;26;20024;-71
2024/04/22 00:34:21;;;;;;;1.40;0.60;;;14.50;58.10;;;;;;5490113;26;20017;-71
2024/04/22 00:36:47;;;;;;;1.90;0.80;;;14.60;58.30;;;;;;5490243;26;19998;-71
2024/04/22 00:39:12;;;;;;;5.22;0.80;;;14.60;58.20;;;;;;5490055;26;20005;-71
2024/04/22 00:41:38;;;;;;;1.45;0.70;;;14.50;58.00;;;;;;5490064;26;20030;-71
2024/04/22 00:44:04;;;;;;;1.65;0.80;;;14.60;58.20;;;;;;5490681;26;19994;-70
2024/04/22 00:46:30;;;;;;;3.08;0.95;;;14.50;58.20;;;;;;5458163;26;19994;-70
2024/04/22 00:48:56;;;;;;;2.05;0.70;;;14.50;58.30;;;;;;5490237;26;20103;-70
2024/04/22 00:51:22;;;;;;;2.80;0.88;;;14.50;58.20;;;;;;5489627;26;20138;-70
2024/04/22 00:53:49;;;;;;;2.42;1.00;;;14.40;58.10;;;;;;5489872;26;19994;-70
2024/04/22 00:56:16;;;;;;;1.08;0.80;;;14.40;58.70;;;;;;5475038;26;20022;-70
2024/04/22 00:58:42;;;;;;;1.63;0.80;;;14.40;58.10;;;;;;5457651;26;20005;-69
2024/04/22 01:01:10;;;;;;;0.82;0.70;;;14.40;58.20;;;;;;5489976;26;20438;-70
2024/04/22 01:03:36;;;;;;;1.10;0.70;;;14.40;58.00;;;;;;5489737;26;20017;-69
2024/04/22 01:06:02;;;;;;;2.10;1.00;;;14.30;57.90;;;;;;5489732;26;20002;-69
2024/04/22 01:08:27;;;;;;;1.52;0.80;;;14.30;58.00;;;;;;5489717;26;20070;-70
2024/04/22 01:10:53;;;;;;;2.63;1.05;;;14.20;57.90;;;;;;5489792;26;19994;-69
2024/04/22 01:13:19;;;;;;;2.80;1.02;;;14.20;58.00;;;;;;5490024;26;19990;-71
2024/04/22 01:15:45;;;;;;;2.08;1.13;;;14.10;58.10;;;;;;5489944;26;20058;-70
2024/04/22 01:18:18;;;;;;;1.45;0.93;;;14.10;58.20;;;;;;5489766;26;20065;-70
2024/04/22 01:20:45;;;;;;;2.90;1.00;;;14.10;58.10;;;;;;5489661;26;19998;-70
2024/04/22 01:23:10;;;;;;;1.75;0.80;;;14.10;58.20;;;;;;5489556;26;19998;-69
2024/04/22 01:25:42;;;;;;;1.83;0.80;;;14.10;58.10;;;;;;5489426;26;20016;-70
2024/04/22 01:28:08;;;;;;;1.30;0.82;;;14.10;58.00;;;;;;5489931;26;19994;-70
2024/04/22 01:30:35;;;;;;;1.67;1.00;;;14.00;57.90;;;;;;5490094;26;19994;-69
2024/04/22 01:33:00;;;;;;;3.38;1.33;;;14.00;58.10;;;;;;5490651;26;20009;-70
2024/04/22 01:35:26;;;;;;;2.25;0.90;;;14.00;58.10;;;;;;5490893;26;20430;-70
2024/04/22 01:37:52;;;;;;;2.40;1.30;;;13.90;58.00;;;;;;5428087;26;19994;-69
2024/04/22 01:40:17;;;;;;;1.45;1.05;;;13.90;58.00;;;;;;5489462;26;19994;-70
2024/04/22 01:42:43;;;;;;;3.65;1.10;;;13.90;58.20;;;;;;5489529;26;20002;-69
2024/04/22 01:45:09;;;;;;;1.98;1.00;;;13.90;58.20;;;;;;5489477;26;19998;-70
2024/04/22 01:47:34;;;;;;;2.38;1.00;;;13.90;58.20;;;;;;5489179;26;20354;-69
2024/04/22 01:50:00;;;;;;;1.60;0.88;;;13.90;58.10;;;;;;5489648;26;20002;-70
2024/04/22 01:52:26;;;;;;;1.67;0.98;;;13.90;58.10;;;;;;5456368;26;19998;-71
2024/04/22 01:54:51;;;;;;;1.90;1.00;;;13.90;58.30;;;;;;5489022;26;20454;-70
2024/04/22 01:57:18;;;;;;;1.63;1.08;;;13.80;58.20;;;;;;5488927;26;20002;-70
2024/04/22 01:59:44;;;;;;;2.70;1.05;;;13.80;58.20;;;;;;5456709;26;19994;-70
2024/04/22 02:02:09;;;;;;;1.85;0.90;;;13.80;58.40;;;;;;5488695;26;19998;-69
2024/04/22 02:04:35;;;;;;;1.52;0.80;;;13.80;58.40;;;;;;5488889;26;20009;-70
2024/04/22 02:07:01;;;;;;;1.45;0.90;;;13.90;58.20;;;;;;5489071;26;19998;-69
2024/04/22 02:09:26;;;;;;;2.33;1.10;;;14.00;58.30;;;;;;5457028;26;20023;-70
2024/04/22 02:11:52;;;;;;;2.33;1.05;;;14.00;58.10;;;;;;5488587;26;20068;-70
2024/04/22 02:14:18;;;;;;;1.45;0.98;;;14.00;58.10;;;;;;5489250;26;19998;-69
2024/04/22 02:16:46;;;;;;;2.05;1.15;;;14.00;58.00;;;;;;5489104;26;20069;-70
2024/04/22 02:19:11;;;;;;;3.30;1.20;;;14.00;58.00;;;;;;5487495;26;19995;-70
2024/04/22 02:21:37;;;;;;;1.70;1.00;;;14.00;58.00;;;;;;5488994;26;20001;-71
2024/04/22 02:24:03;;;;;;;1.15;0.80;;;14.00;58.10;;;;;;5488989;26;20449;-70
2024/04/22 02:26:29;;;;;;;0.82;0.70;;;14.00;58.30;;;;;;5489033;26;20066;-69
2024/04/22 02:28:54;;;;;;;2.60;1.00;;;14.00;58.20;;;;;;5489140;26;19994;-70
2024/04/22 02:31:20;;;;;;;2.60;1.20;;;14.00;58.20;;;;;;5488602;26;20005;-70
2024/04/22 02:33:47;;;;;;;2.70;1.20;;;14.00;58.40;;;;;;5488687;26;19994;-71
2024/04/22 02:36:13;;;;;;;1.90;1.02;;;13.90;58.20;;;;;;5488786;26;20022;-70
2024/04/22 02:38:39;;;;;;;3.58;1.20;;;13.90;58.30;;;;;;5488929;26;20126;-70
2024/04/22 02:41:04;;;;;;;2.33;1.38;;;13.80;58.10;;;;;;5488772;26;20033;-69
2024/04/22 02:43:30;;;;;;;2.17;1.20;;;13.80;58.30;;;;;;5488466;26;20005;-71
2024/04/22 02:45:56;;;;;;;2.42;1.30;;;13.80;58.20;;;;;;5488560;26;19998;-69
2024/04/22 02:48:22;;;;;;;2.10;1.17;;;13.80;58.20;;;;;;5488439;26;20009;-70
2024/04/22 02:50:47;;;;;;;2.45;1.30;;;13.80;58.20;;;;;;5488269;26;19998;-70
2024/04/22 02:53:13;;;;;;;3.83;1.65;;;13.80;58.50;;;;;;5455746;26;20001;-70
2024/04/22 02:55:39;;;;;;;3.75;1.73;;;13.80;58.30;;;;;;5487924;26;19994;-70
2024/04/22 02:58:05;;;;;;;3.72;1.48;;;13.70;58.40;;;;;;5488100;26;20039;-70
2024/04/22 03:00:30;;;;;;;3.28;1.50;;;13.70;58.50;;;;;;5487719;26;20026;-70
2024/04/22 03:02:56;;;;;;;3.05;1.50;;;13.60;58.40;;;;;;5488132;26;20001;-70
2024/04/22 03:05:22;;;;;;;3.92;1.50;;;13.60;58.50;;;;;;5487968;26;20449;-69
2024/04/22 03:07:49;;;;;;;2.67;1.40;;;13.60;58.60;;;;;;5487981;26;20025;-69
2024/04/22 03:10:15;;;;;;;2.78;1.42;;;13.60;59.00;;;;;;5441178;26;20401;-70
2024/04/22 03:12:41;;;;;;;3.42;1.70;;;13.60;58.50;;;;;;5487633;26;19994;-69
2024/04/22 03:15:07;;;;;;;3.17;1.50;;;13.50;58.70;;;;;;5487928;26;20006;-71
2024/04/22 03:17:33;;;;;;;2.30;1.40;;;13.50;58.70;;;;;;5488004;26;19994;-70
2024/04/22 03:19:59;;;;;;;3.13;1.67;;;13.50;58.60;;;;;;5488050;26;20022;-69
2024/04/22 03:22:25;;;;;;;4.90;2.00;;;13.40;59.00;;;;;;5487777;26;20008;-70
2024/04/22 03:24:50;;;;;;;3.72;1.70;;;13.40;58.90;;;;;;5487766;26;19994;-69
2024/04/22 03:27:16;;;;;;;5.22;1.88;;;13.40;59.10;;;;;;5455246;26;20428;-70
2024/04/22 03:29:41;;;;;;;2.17;1.60;;;13.40;59.10;;;;;;5488544;26;19998;-69
2024/04/22 03:32:07;;;;;;;4.10;1.70;;;13.40;59.20;;;;;;5490802;26;20009;-70
2024/04/22 03:34:33;;;;;;;3.10;1.63;;;13.40;59.50;;;;;;5458532;26;20063;-72
2024/04/22 03:36:58;;;;;;;5.50;2.03;;;13.40;59.50;;;;;;5490683;26;20006;-69
2024/04/22 03:39:24;;;;;;;3.92;1.77;;;13.40;59.60;;;;;;5490547;26;19998;-70
2024/04/22 03:41:50;;;;;;;4.97;2.20;;;13.30;59.70;;;;;;5490729;26;19990;-70
2024/04/22 03:44:16;;;;;;;5.53;2.28;;;13.40;59.80;;;;;;5491034;26;19994;-70
2024/04/22 03:52:10;;;;;;;4.72;1.98;;;13.40;61.20;;;;;;5490551;26;19931;-70
2024/04/22 03:54:36;;;;;;;4.10;2.28;;;13.40;60.40;;;;;;5491096;26;19998;-70
2024/04/22 03:57:01;;;;;;;3.42;2.10;;;13.40;60.40;;;;;;5490864;26;20006;-70
2024/04/22 03:59:27;;;;;;;6.85;2.53;;;13.40;60.50;;;;;;5490586;26;20020;-70
2024/04/22 04:01:53;;;;;;;4.32;2.40;;;13.50;60.70;;;;;;5490582;26;20010;-70
2024/04/22 04:04:18;;;;;;;6.13;1.92;;;13.50;60.80;;;;;;5458689;26;20009;-70
2024/04/22 04:06:44;;;;;;;5.82;2.20;;;13.50;60.90;;;;;;5490727;26;19998;-71
2024/04/22 04:09:10;;;;;;;6.63;2.38;;;13.40;61.30;;;;;;5490790;26;19998;-70
2024/04/22 04:11:39;;;;;;;4.05;2.10;;;13.40;61.30;;;;;;5490624;26;20002;-70
2024/04/22 04:14:07;;;;;;;4.15;2.47;;;13.30;61.40;;;;;;5490617;26;20066;-74
2024/04/22 04:16:33;;;;;;;4.70;2.22;;;13.30;61.50;;;;;;5490201;26;20073;-70
2024/04/22 04:18:59;;;;;;;5.43;2.20;;;13.30;61.80;;;;;;5490699;26;20009;-70
2024/04/22 04:21:24;;;;;;;7.45;2.47;;;13.30;61.60;;;;;;5490469;26;19998;-70
2024/04/22 04:23:50;;;;;;;4.30;2.45;;;13.20;61.80;;;;;;5490162;26;20469;-69
2024/04/22 04:26:16;;;;;;;6.45;2.38;;;13.20;61.80;;;;;;5490834;26;19994;-70
2024/04/22 04:28:41;;;;;;;6.10;2.72;;;13.20;62.00;;;;;;5490373;26;19994;-71
2024/04/22 04:31:07;;;;;;;4.30;2.70;;;13.10;61.90;;;;;;5490474;26;20438;-71
2024/04/22 04:33:33;;;;;;;5.45;2.63;;;13.20;62.30;;;;;;5490207;26;20433;-70
2024/04/22 04:36:00;;;;;;;5.18;2.50;;;13.20;62.30;;;;;;5489962;26;20414;-72
2024/04/22 04:38:26;;;;;;;4.35;2.50;;;13.20;62.10;;;;;;5490099;26;20414;-71
2024/04/22 04:40:52;;;;;;;5.13;2.80;;;13.20;62.20;;;;;;5489343;26;20054;-72
2024/04/22 04:43:18;;;;;;;5.30;2.83;;;13.20;62.40;;;;;;5489943;26;20074;-71
2024/04/22 04:45:43;;;;;;;7.20;3.22;;;13.20;62.50;;;;;;5490715;26;20009;-70
2024/04/22 04:48:09;;;;;;;4.15;2.78;;;13.30;62.30;;;;;;5490404;26;19998;-70
2024/04/22 04:50:35;;;;;;;7.30;3.35;;;13.30;62.50;;;;;;5490163;26;20398;-71
2024/04/22 04:53:01;;;;;;;4.95;2.95;;;13.30;62.30;;;;;;5457571;26;20013;-71
2024/04/22 04:55:26;;;;;;;5.60;3.10;;;13.30;62.40;;;;;;5490190;26;20043;-70
2024/04/22 04:57:52;;;;;;;5.60;3.45;;;13.30;62.10;;;;;;5489824;26;19994;-70
2024/04/22 05:00:18;;;;;;;5.63;2.92;;;13.40;62.50;;;;;;5490493;26;20442;-72
2024/04/22 05:02:44;;;;;;;8.30;3.25;;;13.40;62.20;;;;;;5489966;26;20006;-70
2024/04/22 05:05:10;;;;;;;5.10;3.10;;;13.40;62.30;;;;;;5489810;26;20359;-72
2024/04/22 05:07:36;;;;;;;8.45;3.30;;;13.40;62.50;;;;;;5490269;26;19998;-71
2024/04/22 05:10:02;;;;;;;5.25;2.72;;;13.40;62.50;;;;;;5489942;26;20006;-70
2024/04/22 05:12:28;;;;;;;7.32;2.83;;;13.40;62.70;;;;;;5489685;26;20028;-70
2024/04/22 05:14:54;;;;;;;6.95;3.08;;;13.50;62.70;;;;;;5490019;26;20005;-70
2024/04/22 05:17:20;;;;;;;5.70;3.35;;;13.60;62.70;;;;;;5489924;26;20330;-70
2024/04/22 05:19:45;;;;;;;5.47;2.75;;;13.70;63.30;;;;;;5490177;26;20005;-70
2024/04/22 05:22:11;;;;;;;5.38;2.80;;;13.80;62.60;;;;;;5457256;26;20066;-69
2024/04/22 05:24:37;;;;;;;5.72;3.08;;;14.00;62.60;;;;;;5489379;26;20005;-70
2024/04/22 05:27:02;;;;;;;6.53;3.08;;;14.10;62.50;;;;;;5489859;26;20025;-71
2024/04/22 05:29:28;;;;;;;5.68;2.85;;;14.30;62.60;;;;;;5489432;26;20453;-71
2024/04/22 05:31:54;;;;;;;7.00;3.25;;;14.30;62.50;;;;;;5489629;26;20330;-71
2024/04/22 05:37:03;;;;;;;;;;;14.50;62.60;;;;;;5490905;26;20417;-71
2024/04/22 05:39:29;;;;;;;5.60;2.90;;;14.60;63.20;;;;;;5457534;26;19923;-71
2024/04/22 05:41:55;;;;;;;7.57;3.30;;;14.70;62.30;;;;;;5489607;26;19990;-71
2024/04/22 05:44:21;;;;;;;6.80;3.20;;;14.80;62.10;;;;;;5489475;26;20042;-70
2024/04/22 05:46:47;;;;;;;7.47;3.35;;;15.20;62.10;;;;;;5489500;26;19990;-71
2024/04/22 05:49:13;;;;;;;5.82;3.10;;;16.20;60.70;;;;;;5489327;26;20005;-71
2024/04/22 05:51:39;;;;;;;5.13;2.63;;;16.90;59.80;;;;;;5489287;26;20005;-70
2024/04/22 05:54:06;;;;;;;5.72;2.47;;;17.90;58.90;;;;;;5487589;26;20005;-71
2024/04/22 05:56:32;;;;;;;6.45;2.67;;;18.90;57.20;;;;;;5489721;26;20430;-71
2024/04/22 05:58:58;;;;;;;5.57;2.30;;;18.90;57.00;;;;;;5489239;26;20066;-71
2024/04/22 06:01:24;;;;;;;7.55;3.05;;;19.60;55.80;;;;;;5489614;26;19993;-71
2024/04/22 06:03:50;;;;;;;7.03;2.88;;;20.40;54.70;;;;;;5457080;26;20314;-70
2024/04/22 06:06:15;;;;;;;7.05;3.20;;;20.90;53.80;;;;;;5489309;26;19990;-71
2024/04/22 06:08:42;;;;;;;12.10;2.63;;;21.50;53.20;;;;;;5489288;26;19990;-71
2024/04/22 06:11:08;;;;;;;15.73;3.00;;;21.70;52.70;;;;;;5488639;26;19990;-71
2024/04/22 06:13:34;;;;;;;7.40;2.70;;;22.10;52.30;;;;;;5489127;26;20444;-70
2024/04/22 06:16:00;;;;;;;4.40;2.17;;;22.60;51.60;;;;;;5489334;26;20005;-71
2024/04/22 06:18:25;;;;;;;4.45;2.28;;;23.00;51.00;;;;;;5489347;26;20013;-70
2024/04/22 06:20:51;;;;;;;4.68;1.83;;;23.30;50.50;;;;;;5488743;26;19997;-70
2024/04/22 06:23:17;;;;;;;3.97;1.98;;;23.70;50.10;;;;;;5489246;26;20061;-70
2024/04/22 06:25:43;;;;;;;3.60;1.60;;;23.80;49.40;;;;;;5488942;26;19994;-70
2024/04/22 06:28:08;;;;;;;4.55;2.00;;;24.10;49.20;;;;;;5488844;26;19998;-70
2024/04/22 06:30:34;;;;;;;5.82;2.13;;;24.50;48.80;;;;;;5488240;26;20070;-69
2024/04/22 06:33:00;;;;;;;5.55;1.92;;;24.90;48.40;;;;;;5488450;26;19997;-70
2024/04/22 06:35:26;;;;;;;6.60;2.00;;;25.00;47.90;;;;;;5488264;26;20426;-70
2024/04/22 06:37:51;;;;;;;4.47;1.90;;;25.00;47.70;;;;;;5488518;26;20006;-70
2024/04/22 06:40:17;;;;;;;10.77;2.53;;;25.20;47.60;;;;;;5488335;26;20035;-71
2024/04/22 06:42:43;;;;;;;7.10;2.40;;;25.30;47.40;;;;;;5488338;26;20344;-70
2024/04/22 06:45:09;;;;;;;8.05;2.00;;;25.40;47.30;;;;;;5488408;26;19994;-71
2024/04/22 06:47:34;;;;;;;2.88;1.40;;;24.90;47.30;;;;;;5488317;26;19994;-71
2024/04/22 06:50:00;;;;;;;8.90;1.98;;;23.80;48.20;;;;;;5488699;26;20450;-72
2024/04/22 06:52:26;;;;;;;5.03;2.20;;;22.90;48.70;;;;;;5448171;26;1059225;-70
2024/04/22 06:54:51;;;;;;;2.83;1.80;;;21.80;50.10;;;;;;5488219;26;20170;-71
2024/04/22 06:57:17;;;;;;;4.35;2.17;;;20.90;50.90;;;;;;5488498;26;20002;-70
2024/04/22 06:59:46;;;;;;;8.60;2.10;;;20.10;51.70;;;;;;5488075;26;20006;-72
2024/04/22 07:02:12;;;;;;;5.95;1.95;;;19.50;52.50;;;;;;5457222;26;20005;-71
2024/04/22 07:04:37;;;;;;;3.30;1.80;;;19.10;53.00;;;;;;5487372;26;20006;-69
2024/04/22 07:07:03;;;;;;;8.20;1.88;;;20.40;52.10;;;;;;5487806;26;19998;-71
2024/04/22 07:09:29;;;;;;;10.30;1.95;;;21.40;50.60;;;;;;5488083;26;19998;-71
2024/04/22 07:11:54;;;;;;;9.57;2.47;;;22.60;49.50;;;;;;5455831;26;20070;-70
2024/04/22 07:14:22;;;;;;;11.23;2.20;;;23.60;48.60;;;;;;5456053;26;20445;-72
2024/04/22 07:16:55;;;;;;;6.10;2.03;;;23.60;48.30;;;;;;5488170;26;20077;-72
2024/04/22 07:19:21;;;;;;;4.80;1.90;;;23.10;48.20;;;;;;5487900;26;20105;-72
2024/04/22 07:21:47;;;;;;;4.07;1.88;;;22.00;49.10;;;;;;5488160;26;20349;-71
2024/04/22 07:24:13;;;;;;;6.10;2.22;;;21.20;50.10;;;;;;5487757;26;20044;-71
2024/04/22 07:26:38;;;;;;;8.90;2.80;;;20.70;51.00;;;;;;5487858;26;19998;-72
2024/04/22 07:29:05;;;;;;;5.65;2.78;;;20.10;51.70;;;;;;5455920;26;19990;-71
2024/04/22 07:31:32;;;;;;;6.85;2.53;;;19.70;52.40;;;;;;5455642;26;20655;-72
2024/04/22 07:33:58;;;;;;;9.57;2.17;;;19.30;53.00;;;;;;5487709;26;19994;-71
2024/04/22 07:36:47;;;;;;;9.23;2.17;;;19.10;53.60;;;;;;5487466;26;19994;-70
2024/04/22 07:39:14;;;;;;;5.45;2.35;;;18.70;53.80;;;;;;5487577;26;20001;-72
2024/04/22 07:41:40;;;;;;;4.18;2.15;;;18.40;55.10;;;;;;5487319;26;20033;-71
2024/04/22 07:44:06;;;;;;;13.98;2.75;;;18.10;54.80;;;;;;5486619;26;20098;-70
2024/04/22 07:46:32;;;;;;;5.65;2.42;;;18.20;55.50;;;;;;5487439;26;20299;-71
2024/04/22 07:48:58;;;;;;;8.65;3.08;;;18.50;55.40;;;;;;5487015;26;20005;-70
2024/04/22 07:51:24;;;;;;;7.53;2.70;;;18.70;55.20;;;;;;5486888;26;20002;-70
2024/04/22 07:53:50;;;;;;;5.70;3.22;;;18.80;54.80;;;;;;5487239;26;20439;-71
2024/04/22 07:56:17;;;;;;;4.18;2.10;;;18.90;54.90;;;;;;5487490;26;20078;-72
2024/04/22 07:58:44;;;;;;;6.88;2.20;;;18.90;54.70;;;;;;5487583;26;20356;-71
2024/04/22 08:01:11;;;;;;;8.40;2.33;;;18.70;54.70;;;;;;5487719;26;19998;-71
2024/04/22 08:03:37;;;;;;;6.72;2.40;;;18.50;55.10;;;;;;5487455;26;20095;-71
2024/04/22 08:06:05;;;;;;;6.80;2.85;;;18.30;55.60;;;;;;5487849;26;20032;-71
2024/04/22 08:08:32;;;;;;;9.85;2.97;;;18.10;56.10;;;;;;5487395;26;20022;-71
2024/04/22 08:10:58;;;;;;;9.23;2.85;;;17.90;56.10;;;;;;5487548;26;19994;-72
2024/04/22 08:13:24;;;;;;;10.35;3.15;;;17.80;56.90;;;;;;5487275;26;20009;-71
2024/04/22 08:15:49;;;;;;;11.45;3.50;;;17.70;57.10;;;;;;5487389;26;19998;-72
2024/04/22 08:18:16;;;;;;;5.78;2.72;;;17.70;57.10;;;;;;5490869;26;19998;-70
2024/04/22 08:20:41;;;;;;;8.10;2.80;;;17.80;57.10;;;;;;5490985;26;20071;-71
2024/04/22 08:23:07;;;;;;;6.25;2.47;;;17.80;57.50;;;;;;5491152;26;20010;-72
2024/04/22 08:25:33;;;;;;;7.78;2.63;;;17.80;57.60;;;;;;5491072;26;20005;-71
2024/04/22 08:27:58;;;;;;;5.97;2.60;;;17.70;57.50;;;;;;5491414;26;20005;-70
2024/04/22 08:30:27;;;;;;;7.82;2.65;;;17.70;58.00;;;;;;5458552;26;19990;-71
2024/04/22 08:32:54;;;;;;;3.90;2.40;;;17.80;58.20;;;;;;5491039;26;20078;-71
2024/04/22 08:35:20;;;;;;;7.05;2.67;;;18.00;57.70;;;;;;5490973;26;20051;-70
2024/04/22 08:37:45;;;;;;;10.48;2.90;;;18.30;57.40;;;;;;5490649;26;20330;-71
2024/04/22 08:40:11;;;;;;;9.48;3.55;;;18.50;57.10;;;;;;5490556;26;20457;-71
2024/04/22 08:42:38;;;;;;;14.63;3.63;;;18.50;57.00;;;;;;5490807;26;20022;-71
2024/04/22 08:45:05;;;;;;;6.28;3.20;;;18.60;57.30;;;;;;5490321;26;20005;-72
2024/04/22 08:47:31;;;;;;;6.55;3.10;;;18.60;57.80;;;;;;5491057;26;20412;-73
2024/04/22 08:49:58;;;;;;;6.25;3.30;;;18.50;57.30;;;;;;5490762;26;20067;-71
2024/04/22 08:52:24;;;;;;;6.18;3.30;;;18.50;57.80;;;;;;5490319;26;19998;-71
2024/04/22 08:54:49;;;;;;;7.40;3.42;;;18.70;57.60;;;;;;5458402;26;20005;-71
2024/04/22 08:57:15;;;;;;;8.15;3.70;;;19.00;57.00;;;;;;5457912;26;19990;-71
2024/04/22 08:59:41;;;;;;;8.32;3.55;;;19.20;56.50;;;;;;5490319;26;20006;-71
2024/04/22 09:02:07;;;;;;;6.18;2.97;;;19.50;56.60;;;;;;5490627;26;20181;-71
2024/04/22 09:04:32;;;;;;;7.10;2.65;;;19.50;56.20;;;;;;5490228;26;20341;-71
2024/04/22 09:07:05;;;;;;;6.30;2.90;;;19.70;56.10;;;;;;5490372;26;20009;-72
2024/04/22 09:09:31;;;;;;;5.60;2.40;;;19.70;56.00;;;;;;5490256;26;20066;-73
2024/04/22 09:11:57;;;;;;;12.85;2.78;;;19.70;56.70;;;;;;5489932;26;20026;-72
2024/04/22 09:14:25;;;;;;;7.38;2.90;;;19.80;56.00;;;;;;5489961;26;19994;-71
2024/04/22 09:16:50;;;;;;;7.63;3.10;;;19.90;55.90;;;;;;5490097;26;19998;-72
2024/04/22 09:19:25;;;;;;;16.50;3.25;;;20.00;55.90;;;;;;5490355;26;19994;-72
2024/04/22 09:21:52;;;;;;;6.15;2.63;;;20.10;55.70;;;;;;5490362;26;20035;-71
2024/04/22 09:24:18;;;;;;;7.40;2.75;;;20.00;55.40;;;;;;5489560;26;20336;-72
2024/04/22 09:26:44;;;;;;;10.02;3.05;;;19.90;55.20;;;;;;5489185;26;19994;-71
2024/04/22 09:29:14;;;;;;;12.57;3.30;;;19.90;55.00;;;;;;5457273;26;20368;-71
2024/04/22 09:31:40;;;;;;;7.68;2.67;;;19.90;55.10;;;;;;5489492;26;19998;-70
2024/04/22 09:34:07;;;;;;;5.95;2.85;;;19.80;55.30;;;;;;5489952;26;19998;-72
2024/04/22 09:36:34;;;;;;;8.57;2.60;;;19.90;55.10;;;;;;5489101;26;20018;-71
2024/04/22 09:39:00;;;;;;;6.32;2.50;;;19.80;54.70;;;;;;5489502;26;19994;-70
2024/04/22 09:41:26;;;;;;;6.55;2.53;;;19.90;54.40;;;;;;5488386;26;20061;-70
2024/04/22 09:43:53;;;;;;;9.00;2.30;;;20.00;54.70;;;;;;5489109;26;20005;-71
2024/04/22 09:46:20;;;;;;;5.50;1.98;;;20.00;54.40;;;;;;5489308;26;20066;-72
2024/04/22 09:48:47;;;;;;;7.57;2.25;;;20.00;54.00;;;;;;5488997;26;20441;-67
2024/04/22 09:51:14;;;;;;;8.80;2.70;;;20.00;54.10;;;;;;5457374;26;20338;-71
2024/04/22 09:53:41;;;;;;;6.38;2.80;;;19.90;54.20;;;;;;5489517;26;20601;-71
2024/04/22 09:56:28;;;;;;;4.93;2.15;;;19.90;55.20;;;;;;5457253;26;19998;-72
2024/04/22 09:58:54;;;;;;;5.88;2.13;;;19.80;54.30;;;;;;5489503;26;20315;-71
2024/04/22 10:01:20;;;;;;;5.40;2.25;;;19.80;54.50;;;;;;5489403;26;20329;-71
2024/04/22 10:03:46;;;;;;;6.45;2.10;;;19.70;54.90;;;;;;5489792;26;19998;-71
2024/04/22 10:06:14;;;;;;;7.30;2.33;;;19.70;55.00;;;;;;5457253;26;20006;-70
2024/04/22 10:08:40;;;;;;;7.50;2.30;;;19.60;55.10;;;;;;5488828;26;19998;-71
2024/04/22 10:11:11;;;;;;;5.80;1.85;;;19.70;55.20;;;;;;5488867;26;19994;-71
2024/04/22 10:13:37;;;;;;;5.82;2.28;;;19.70;55.00;;;;;;5488930;26;20062;-71
2024/04/22 10:16:04;;;;;;;11.23;2.20;;;19.70;55.20;;;;;;5489061;26;20335;-71
2024/04/22 10:18:30;;;;;;;4.70;1.70;;;19.80;55.30;;;;;;5489204;26;20005;-73
2024/04/22 10:21:02;;;;;;;5.50;2.05;;;19.90;55.40;;;;;;5488876;26;20005;-71
2024/04/22 10:23:27;;;;;;;7.22;1.85;;;20.00;55.20;;;;;;5488620;26;19994;-71
2024/04/22 10:25:53;;;;;;;7.22;1.27;;;20.00;54.90;;;;;;5489421;26;19994;-71
2024/04/22 10:28:19;;;;;;;4.85;1.30;;;20.20;54.40;;;;;;5457169;26;19994;-70
2024/04/22 10:30:44;;;;;;;6.32;1.02;;;20.30;53.80;;;;;;5489692;26;20015;-71
2024/04/22 10:33:10;;;;;;;4.05;1.23;;;20.40;53.60;;;;;;5457328;26;20087;-71
2024/04/22 10:35:37;;;;;;;4.50;1.17;;;20.60;53.00;;;;;;5488486;26;20009;-70
2024/04/22 10:38:03;;;;;;;4.88;1.15;;;20.70;52.70;;;;;;5488865;26;19994;-72
2024/04/22 10:40:28;;;;;;;4.20;1.23;;;20.80;52.90;;;;;;5487900;26;20337;-70
2024/04/22 10:42:55;;;;;;;4.10;0.95;;;20.80;52.80;;;;;;5457345;26;20070;-71
2024/04/22 10:45:21;;;;;;;9.77;1.55;;;20.90;52.80;;;;;;5456344;26;20125;-70
2024/04/22 10:47:47;;;;;;;4.07;1.13;;;20.90;52.80;;;;;;5456495;26;20009;-69
2024/04/22 10:50:16;;;;;;;6.63;1.20;;;20.90;52.60;;;;;;5488427;26;20452;-71
2024/04/22 10:52:41;;;;;;;6.95;1.33;;;20.90;52.40;;;;;;5488415;26;20008;-71
2024/04/22 10:55:07;;;;;;;6.72;1.02;;;20.70;52.50;;;;;;5488863;26;20001;-71
2024/04/22 10:57:39;;;;;;;8.18;1.40;;;20.70;52.80;;;;;;5488442;26;20562;-72
2024/04/22 11:00:06;;;;;;;6.15;1.77;;;20.60;52.90;;;;;;5488686;26;19998;-72
2024/04/22 11:02:33;;;;;;;5.43;1.50;;;20.70;52.80;;;;;;5488353;26;19997;-69
2024/04/22 11:05:03;;;;;;;7.07;1.50;;;20.80;52.90;;;;;;5488708;26;20005;-71
2024/04/22 11:07:30;;;;;;;6.30;1.20;;;21.00;52.60;;;;;;5487940;26;19994;-71
2024/04/22 11:09:59;;;;;;;4.78;1.23;;;21.10;52.80;;;;;;5488242;26;20017;-70
2024/04/22 11:12:26;;;;;;;7.88;1.55;;;21.10;52.40;;;;;;5487801;26;20460;-71
2024/04/22 11:14:53;;;;;;;6.45;1.30;;;21.10;52.30;;;;;;5488358;26;20442;-71
2024/04/22 11:17:22;;;;;;;6.13;1.00;;;21.10;52.10;;;;;;5488246;26;19994;-70
2024/04/22 11:19:49;;;;;;;4.18;0.93;;;21.10;52.00;;;;;;5487968;26;20350;-72
2024/04/22 11:22:15;;;;;;;7.53;1.10;;;21.00;52.30;;;;;;5488191;26;20406;-73
2024/04/22 11:24:41;;;;;;;6.72;1.17;;;21.10;52.40;;;;;;5488228;26;20462;-71
2024/04/22 11:27:07;;;;;;;4.15;1.13;;;21.10;52.70;;;;;;5488596;26;20013;-74
2024/04/22 11:29:34;;;;;;;6.05;1.40;;;21.00;52.80;;;;;;5488241;26;20008;-72
2024/04/22 11:32:00;;;;;;;6.35;1.50;;;20.80;52.90;;;;;;5487724;26;20477;-70
2024/04/22 11:34:26;;;;;;;5.15;1.10;;;20.70;53.20;;;;;;5455645;26;20008;-71
2024/04/22 11:36:54;;;;;;;5.15;1.27;;;20.60;53.10;;;;;;5488230;26;19994;-72
2024/04/22 11:39:21;;;;;;;4.95;1.10;;;20.60;53.10;;;;;;5488195;26;20006;-71
2024/04/22 11:41:47;;;;;;;3.65;0.88;;;20.60;53.00;;;;;;5487843;26;19994;-70
2024/04/22 11:44:13;;;;;;;2.83;1.02;;;20.60;52.90;;;;;;5487876;26;20399;-70
2024/04/22 11:46:41;;;;;;;3.33;1.08;;;20.70;53.00;;;;;;5455619;26;20074;-70
2024/04/22 11:49:07;;;;;;;3.65;1.10;;;20.60;53.00;;;;;;5487651;26;20008;-71
2024/04/22 11:51:33;;;;;;;5.13;1.45;;;20.30;53.10;;;;;;5490062;26;20407;-71
2024/04/22 11:53:59;;;;;;;3.88;1.08;;;20.20;53.40;;;;;;5491432;26;19994;-71
2024/04/22 11:56:30;;;;;;;4.30;1.00;;;20.10;53.70;;;;;;5491258;26;20009;-70
2024/04/22 11:58:57;;;;;;;3.83;0.90;;;20.10;53.80;;;;;;5491236;26;20445;-71
2024/04/22 12:01:22;;;;;;;9.75;1.30;;;20.10;53.80;;;;;;5491329;26;20022;-73
2024/04/22 12:03:48;;;;;;;4.35;1.05;;;20.20;54.00;;;;;;5491595;26;20074;-72
2024/04/22 12:06:14;;;;;;;5.85;1.00;;;20.40;53.80;;;;;;5491304;26;19994;-74
2024/04/22 12:08:39;;;;;;;7.28;1.27;;;20.40;53.80;;;;;;5491020;26;20438;-71
2024/04/22 12:11:05;;;;;;;5.95;1.20;;;20.30;53.70;;;;;;5491002;26;20434;-73
2024/04/22 12:13:30;;;;;;;5.22;0.90;;;20.20;53.80;;;;;;5491065;26;20013;-71
2024/04/22 12:15:56;;;;;;;4.03;0.90;;;20.20;53.90;;;;;;5458842;26;20013;-70
2024/04/22 12:18:22;;;;;;;5.47;0.90;;;20.10;53.90;;;;;;5491496;26;20349;-72
2024/04/22 12:20:47;;;;;;;2.63;0.93;;;20.00;53.90;;;;;;5490731;26;20071;-71
2024/04/22 12:23:13;;;;;;;4.75;1.08;;;20.00;53.90;;;;;;5491051;26;20074;-71
2024/04/22 12:25:39;;;;;;;4.55;1.23;;;20.10;53.60;;;;;;5458767;26;19990;-71
2024/04/22 12:28:05;;;;;;;5.72;1.00;;;20.30;53.60;;;;;;5491049;26;20002;-72
2024/04/22 12:30:30;;;;;;;4.38;1.10;;;20.40;53.50;;;;;;5491213;26;19994;-69
2024/04/22 12:32:56;;;;;;;4.45;1.08;;;20.40;53.30;;;;;;5458672;26;20311;-70
2024/04/22 12:35:22;;;;;;;5.80;1.33;;;20.40;53.30;;;;;;5491117;26;20372;-71
2024/04/22 12:37:47;;;;;;;8.35;1.00;;;20.40;53.50;;;;;;5491117;26;20406;-71
2024/04/22 12:40:13;;;;;;;4.40;0.80;;;20.20;53.30;;;;;;5491074;26;19994;-71
2024/04/22 12:42:39;;;;;;;5.20;1.05;;;20.20;53.50;;;;;;5490107;26;19994;-71
2024/04/22 12:45:05;;;;;;;4.10;0.90;;;20.30;53.50;;;;;;5490835;26;20005;-70
2024/04/22 12:52:59;;;;;;;4.70;1.10;;;20.70;52.50;;;;;;5490249;26;20047;-71